Time;durP1;ratioP1;P1;durP2;ratioP2;P2;SDS_P1;SDS_P2;PMS_P1;PMS_P2;Temp;Humidity;BMP_temperature;BMP_pressure;BME280_temperature;BME280_humidity;BME280_pressure;Samples;Min_cycle;Max_cycle;Signal;HPM_P1;HPM_P2
2023/05/22 00:01:55;;;;;;;;;;;17.30;99.90;;;;;;5013756;28;20288;-89
2023/05/22 00:04:23;;;;;;;;;;;17.50;99.90;;;;;;4998444;28;19925;-90
2023/05/22 00:06:49;;;;;;;;;;;17.10;99.90;;;;;;5008796;28;19925;-89
2023/05/22 00:09:19;;;;;;;;;;;17.30;99.90;;;;;;5026216;28;20435;-89
2023/05/22 00:11:45;;;;;;;;;;;17.60;99.90;;;;;;5032944;28;19929;-89
2023/05/22 00:14:12;;;;;;;;;;;17.40;99.90;;;;;;5026692;28;19933;-88
2023/05/22 00:16:49;;;;;;;;;;;17.40;99.90;;;;;;5012979;28;19925;-90
2023/05/22 00:19:17;;;;;;;;;;;16.70;99.90;;;;;;5029514;28;20004;-90
2023/05/22 00:21:43;;;;;;;;;;;17.10;99.90;;;;;;5015991;28;20327;-90
2023/05/22 00:24:09;;;;;;;;;;;17.50;99.90;;;;;;5015533;28;19972;-90
2023/05/22 00:26:40;;;;;;;;;;;17.40;99.90;;;;;;5013010;28;20453;-90
2023/05/22 00:29:11;;;;;;;;;;;16.10;99.90;;;;;;5000067;28;19980;-89
2023/05/22 00:31:37;;;;;;;;;;;19.30;99.90;;;;;;5034846;28;19948;-90
2023/05/22 00:34:10;;;;;;;;;;;17.20;99.90;;;;;;5018459;28;20365;-90
2023/05/22 00:36:38;;;;;;;;;;;17.00;99.90;;;;;;5016794;28;20411;-89
2023/05/22 00:39:06;;;;;;;;;;;17.20;99.90;;;;;;5016805;28;19925;-90
2023/05/22 00:41:37;;;;;;;;;;;17.10;99.90;;;;;;5051931;28;20069;-90
2023/05/22 00:44:06;;;;;;;;;;;17.00;99.90;;;;;;5035054;28;19925;-90
2023/05/22 00:46:32;;;;;;;;;;;16.60;99.90;;;;;;5021566;28;20015;-91
2023/05/22 00:49:00;;;;;;;;;;;17.40;99.90;;;;;;5022953;28;20051;-89
2023/05/22 00:51:34;;;;;;;;;;;17.00;99.90;;;;;;5023608;28;19931;-91
2023/05/22 00:53:59;;;;;;;;;;;17.10;99.90;;;;;;5028855;28;19925;-90
2023/05/22 00:56:25;;;;;;;;;;;17.80;99.90;;;;;;5023432;28;20284;-90
2023/05/22 00:58:51;;;;;;;;;;;17.60;99.90;;;;;;5022991;28;19924;-90
2023/05/22 01:01:25;;;;;;;;;;;16.90;99.90;;;;;;5054862;28;20444;-90
2023/05/22 01:03:54;;;;;;;;;;;16.90;99.90;;;;;;5016049;28;20007;-90
2023/05/22 01:06:32;;;;;;;;;;;17.40;99.90;;;;;;5006804;28;19925;-90
2023/05/22 01:09:00;;;;;;;;;;;16.90;99.90;;;;;;5014998;28;19925;-90
2023/05/22 01:11:36;;;;;;;;;;;16.90;99.90;;;;;;4997199;28;19952;-90
2023/05/22 01:14:10;;;;;;;;;;;16.90;99.90;;;;;;5047912;28;20360;-90
2023/05/22 01:17:01;;;;;;;;;;;16.80;99.90;;;;;;5038676;28;19929;-90
2023/05/22 01:19:33;;;;;;;;;;;17.20;99.90;;;;;;5015701;28;19991;-89
2023/05/22 01:22:09;;;;;;;;;;;17.10;99.90;;;;;;5016415;28;19924;-89
2023/05/22 01:24:51;;;;;;;;;;;16.90;99.90;;;;;;5019589;28;20396;-90
2023/05/22 01:27:49;;;;;;;;;;;16.80;99.90;;;;;;5008820;28;20010;-90
2023/05/22 01:30:18;;;;;;;;;;;16.80;99.90;;;;;;4993844;28;19937;-92
2023/05/22 01:32:47;;;;;;;;;;;16.70;99.90;;;;;;5004702;28;20022;-89
2023/05/22 01:35:18;;;;;;;;;;;16.70;99.90;;;;;;5017779;28;20526;-89
2023/05/22 01:37:44;;;;;;;;;;;15.90;99.90;;;;;;5014494;28;19925;-90
2023/05/22 01:40:11;;;;;;;;;;;16.60;99.90;;;;;;5014289;28;19940;-89
2023/05/22 01:42:40;;;;;;;;;;;16.50;99.90;;;;;;5023903;28;20249;-90
2023/05/22 01:45:09;;;;;;;;;;;13.90;99.90;;;;;;5035748;28;19925;-90
2023/05/22 01:47:36;;;;;;;;;;;16.80;99.90;;;;;;5003436;28;19926;-90
2023/05/22 01:50:05;;;;;;;;;;;16.50;99.90;;;;;;5033245;28;20007;-89
2023/05/22 01:52:39;;;;;;;;;;;16.40;99.90;;;;;;5013041;28;19932;-90
2023/05/22 01:55:13;;;;;;;;;;;16.10;99.90;;;;;;5015509;28;19926;-91
2023/05/22 01:57:41;;;;;;;;;;;17.20;99.90;;;;;;5038068;28;19925;-90
2023/05/22 02:00:11;;;;;;;;;;;16.10;99.90;;;;;;5008507;28;19965;-90
2023/05/22 02:02:41;;;;;;;;;;;16.20;99.90;;;;;;5019448;28;20372;-91
2023/05/22 02:05:09;;;;;;;;;;;14.00;99.90;;;;;;5009043;28;19932;-90
2023/05/22 02:07:36;;;;;;;;;;;16.30;99.90;;;;;;5013724;28;19933;-90
2023/05/22 02:10:02;;;;;;;;;;;16.90;99.90;;;;;;5019275;28;19931;-90
2023/05/22 02:12:28;;;;;;;;;;;17.10;99.90;;;;;;5025124;28;20020;-90
2023/05/22 02:15:04;;;;;;;;;;;15.90;99.90;;;;;;5014874;28;19929;-89
2023/05/22 02:17:29;;;;;;;;;;;16.00;99.90;;;;;;5040525;28;19920;-92
2023/05/22 02:19:58;;;;;;;;;;;15.70;99.90;;;;;;5024627;28;19929;-90
2023/05/22 02:22:30;;;;;;;;;;;16.30;99.90;;;;;;5039599;28;19960;-93
2023/05/22 02:24:58;;;;;;;;;;;16.20;99.90;;;;;;5034844;28;19926;-90
2023/05/22 02:27:23;;;;;;;;;;;16.10;99.90;;;;;;5022646;28;19979;-90
2023/05/22 02:29:49;;;;;;;;;;;16.90;99.90;;;;;;5023763;28;19929;-90
2023/05/22 02:32:20;;;;;;;;;;;19.00;99.90;;;;;;5024227;28;20304;-90
2023/05/22 02:34:48;;;;;;;;;;;17.70;99.90;;;;;;5022100;28;19925;-90
2023/05/22 02:37:19;;;;;;;;;;;16.30;99.90;;;;;;5018299;28;20377;-90
2023/05/22 02:39:47;;;;;;;;;;;16.30;99.90;;;;;;5014714;28;20020;-90
2023/05/22 02:42:18;;;;;;;;;;;16.40;99.90;;;;;;5015000;28;19933;-91
2023/05/22 02:44:43;;;;;;;;;;;16.40;99.90;;;;;;5006984;28;19973;-90
2023/05/22 02:47:09;;;;;;;;;;;16.40;99.90;;;;;;5027178;28;19933;-90
2023/05/22 02:49:37;;;;;;;;;;;16.30;99.90;;;;;;5013492;28;20296;-90
2023/05/22 02:52:05;;;;;;;;;;;16.30;99.90;;;;;;5018063;28;19932;-90
2023/05/22 02:54:39;;;;;;;;;;;16.60;99.90;;;;;;5017466;28;19925;-90
2023/05/22 02:57:14;;;;;;;;;;;15.50;99.90;;;;;;5018085;28;20285;-91
2023/05/22 02:59:43;;;;;;;;;;;16.50;99.90;;;;;;5030904;28;20019;-90
2023/05/22 03:02:16;;;;;;;;;;;16.20;99.90;;;;;;5015580;28;20289;-89
2023/05/22 03:04:45;;;;;;;;;;;16.30;99.90;;;;;;5011042;28;19925;-90
2023/05/22 03:07:20;;;;;;;;;;;16.30;99.90;;;;;;5014607;28;19925;-90
2023/05/22 03:09:45;;;;;;;;;;;14.90;99.90;;;;;;5035286;28;19925;-91
2023/05/22 03:12:11;;;;;;;;;;;16.10;99.90;;;;;;5012834;28;20278;-90
2023/05/22 03:14:37;;;;;;;;;;;16.20;99.90;;;;;;5017195;28;19932;-90
2023/05/22 03:17:07;;;;;;;;;;;16.30;99.90;;;;;;5000559;28;19933;-89
2023/05/22 03:19:36;;;;;;;;;;;16.50;99.90;;;;;;5003701;28;20003;-90
2023/05/22 03:22:02;;;;;;;;;;;16.50;99.90;;;;;;5017222;28;20607;-91
2023/05/22 03:24:28;;;;;;;;;;;16.10;99.90;;;;;;5016054;28;20357;-90
2023/05/22 03:27:04;;;;;;;;;;;;;;;;;;;;;
2023/05/22 03:29:37;;;;;;;;;;;13.90;99.90;;;;;;5036948;28;19931;-90
2023/05/22 03:32:03;;;;;;;;;;;18.30;99.90;;;;;;4994192;28;19974;-90
2023/05/22 03:34:31;;;;;;;;;;;16.20;99.90;;;;;;5048602;28;19928;-90
2023/05/22 03:37:00;;;;;;;;;;;16.00;99.90;;;;;;5036970;28;20410;-90
2023/05/22 03:39:25;;;;;;;;;;;16.20;99.90;;;;;;5005145;28;19983;-90
2023/05/22 03:41:51;;;;;;;;;;;16.20;99.90;;;;;;5010670;28;19926;-90
2023/05/22 03:44:20;;;;;;;;;;;16.30;99.90;;;;;;5050915;28;19996;-91
2023/05/22 03:46:50;;;;;;;;;;;16.50;99.90;;;;;;5001224;28;20078;-90
2023/05/22 03:49:18;;;;;;;;;;;16.30;99.90;;;;;;5046524;28;19929;-90
2023/05/22 03:51:44;;;;;;;;;;;16.50;99.90;;;;;;5020614;28;19982;-91
2023/05/22 03:54:10;;;;;;;;;;;16.20;99.90;;;;;;5035710;28;20369;-90
2023/05/22 03:56:36;;;;;;;;;;;16.10;99.90;;;;;;5004731;28;20015;-90
2023/05/22 03:59:02;;;;;;;;;;;16.40;99.90;;;;;;5019839;28;19932;-91
2023/05/22 04:01:30;;;;;;;;;;;16.00;99.90;;;;;;5019928;28;19925;-91
2023/05/22 04:03:59;;;;;;;;;;;16.40;99.90;;;;;;5036850;28;19924;-91
2023/05/22 04:06:25;;;;;;;;;;;13.80;99.90;;;;;;5019715;28;20027;-90
2023/05/22 04:08:51;;;;;;;;;;;16.30;99.90;;;;;;5012091;28;20035;-91
2023/05/22 04:11:24;;;;;;;;;;;16.00;99.90;;;;;;5019918;28;19932;-90
2023/05/22 04:13:57;;;;;;;;;;;16.00;99.90;;;;;;5011567;28;19925;-92
2023/05/22 04:16:23;;;;;;;;;;;15.90;99.90;;;;;;5016723;28;19990;-90
2023/05/22 04:18:48;;;;;;;;;;;16.10;99.90;;;;;;5019093;28;19925;-90
2023/05/22 04:21:17;;;;;;;;;;;15.90;99.90;;;;;;5019508;28;20287;-90
2023/05/22 04:23:45;;;;;;;;;;;15.90;99.90;;;;;;5020453;28;19956;-91
2023/05/22 04:26:12;;;;;;;;;;;15.90;99.90;;;;;;5016879;28;19925;-89
2023/05/22 04:28:38;;;;;;;;;;;16.40;99.90;;;;;;5018950;28;19971;-90
2023/05/22 04:31:05;;;;;;;;;;;16.00;99.90;;;;;;5003158;28;19925;-92
2023/05/22 04:33:39;;;;;;;;;;;16.40;99.90;;;;;;5016843;28;20368;-90
2023/05/22 04:36:08;;;;;;;;;;;16.10;99.90;;;;;;5017136;28;20437;-90
2023/05/22 04:38:35;;;;;;;;;;;16.10;99.90;;;;;;5019453;28;19928;-89
2023/05/22 04:41:02;;;;;;;;;;;16.60;99.90;;;;;;5036438;28;19932;-89
2023/05/22 04:43:28;;;;;;;;;;;16.30;99.90;;;;;;5028100;28;20436;-90
2023/05/22 04:45:56;;;;;;;;;;;16.40;99.90;;;;;;5020085;28;19924;-90
2023/05/22 04:48:23;;;;;;;;;;;15.70;99.90;;;;;;5019807;28;19932;-90
2023/05/22 04:50:56;;;;;;;;;;;16.60;99.90;;;;;;5036276;28;20202;-90
2023/05/22 04:53:22;;;;;;;;;;;16.40;99.90;;;;;;5018106;28;19931;-90
2023/05/22 04:55:50;;;;;;;;;;;16.60;99.90;;;;;;5019691;28;19925;-90
2023/05/22 04:58:15;;;;;;;;;;;16.70;99.90;;;;;;5002662;28;19925;-89
2023/05/22 05:00:44;;;;;;;;;;;16.70;99.90;;;;;;5045567;28;20468;-90
2023/05/22 05:03:10;;;;;;;;;;;16.50;99.90;;;;;;5035886;28;20027;-89
2023/05/22 05:05:44;;;;;;;;;;;16.60;99.90;;;;;;5015414;28;20382;-89
2023/05/22 05:08:11;;;;;;;;;;;16.40;99.90;;;;;;5030654;28;19925;-90
2023/05/22 05:10:39;;;;;;;;;;;14.50;99.90;;;;;;5018378;28;19925;-89
2023/05/22 05:13:04;;;;;;;;;;;16.50;99.90;;;;;;5030067;28;19928;-89
2023/05/22 05:15:38;;;;;;;;;;;16.40;99.90;;;;;;5017358;28;19978;-93
2023/05/22 05:18:06;;;;;;;;;;;16.70;99.90;;;;;;5027097;28;20828;-94
2023/05/22 05:20:34;;;;;;;;;;;16.40;99.90;;;;;;5012427;28;20292;-91
2023/05/22 05:23:05;;;;;;;;;;;16.60;99.90;;;;;;5019262;28;19925;-90
2023/05/22 05:25:41;;;;;;;;;;;16.30;99.90;;;;;;5002729;28;19925;-90
2023/05/22 05:28:10;;;;;;;;;;;16.70;99.90;;;;;;5012858;28;19925;-91
2023/05/22 05:30:41;;;;;;;;;;;17.20;99.90;;;;;;4983659;28;19925;-90
2023/05/22 05:33:10;;;;;;;;;;;16.80;99.90;;;;;;5018799;28;19963;-91
2023/05/22 05:35:38;;;;;;;;;;;16.40;99.90;;;;;;5016571;28;19925;-89
2023/05/22 05:38:06;;;;;;;;;;;16.50;99.90;;;;;;5019256;28;20392;-90
2023/05/22 05:40:37;;;;;;;;;;;16.50;99.90;;;;;;5009672;28;19933;-91
2023/05/22 05:43:03;;;;;;;;;;;17.40;99.90;;;;;;5017325;28;19926;-93
2023/05/22 05:45:31;;;;;;;;;;;17.00;99.90;;;;;;5016557;28;19929;-89
2023/05/22 05:47:59;;;;;;;;;;;16.60;99.90;;;;;;5019161;28;19925;-90
2023/05/22 05:50:30;;;;;;;;;;;15.20;99.90;;;;;;5014782;28;19926;-91
2023/05/22 05:52:56;;;;;;;;;;;16.40;99.90;;;;;;5016261;28;19925;-92
2023/05/22 05:55:31;;;;;;;;;;;17.60;99.90;;;;;;5020039;28;20039;-90
2023/05/22 05:58:00;;;;;;;;;;;16.60;99.90;;;;;;5009463;28;19975;-91
2023/05/22 06:00:41;;;;;;;;;;;;;;;;;;;;;
2023/05/22 06:05:35;;;;;;;;;;;16.60;99.90;;;;;;5054309;28;19929;-93
2023/05/22 06:08:00;;;;;;;;;;;16.70;99.90;;;;;;5055080;28;19931;-93
2023/05/22 06:10:32;;;;;;;;;;;16.70;99.90;;;;;;5042070;28;19932;-93
2023/05/22 06:12:57;;;;;;;;;;;16.70;99.90;;;;;;5055870;22;19952;-92
2023/05/22 06:15:23;;;;;;;;;;;16.80;99.90;;;;;;5064936;28;19931;-94
2023/05/22 06:17:49;;;;;;;;;;;16.70;99.90;;;;;;5049222;28;19933;-92
2023/05/22 06:20:14;;;;;;;;;;;16.70;99.90;;;;;;5056748;28;19990;-92
2023/05/22 06:22:40;;;;;;;;;;;16.80;99.90;;;;;;5062100;28;19942;-92
2023/05/22 06:25:06;;;;;;;;;;;16.80;99.90;;;;;;5040423;28;19925;-93
2023/05/22 06:27:31;;;;;;;;;;;16.80;99.90;;;;;;5038870;28;20285;-92
2023/05/22 06:29:57;;;;;;;;;;;16.90;99.90;;;;;;5059500;28;19924;-93
2023/05/22 06:32:26;;;;;;;;;;;16.80;99.90;;;;;;5064496;28;19971;-94
2023/05/22 06:34:51;;;;;;;;;;;18.20;99.90;;;;;;5061024;28;19947;-93
2023/05/22 06:37:17;;;;;;;;;;;17.00;99.90;;;;;;5066521;28;19929;-93
2023/05/22 06:39:42;;;;;;;;;;;17.00;99.90;;;;;;5064068;28;19925;-92
2023/05/22 06:42:08;;;;;;;;;;;17.00;99.90;;;;;;5059072;28;19999;-93
2023/05/22 06:44:34;;;;;;;;;;;17.00;99.90;;;;;;5058746;28;19950;-94
2023/05/22 06:47:02;;;;;;;;;;;17.00;99.90;;;;;;5066212;28;19931;-93
2023/05/22 06:49:28;;;;;;;;;;;18.00;99.90;;;;;;5077870;28;19936;-93
2023/05/22 06:51:54;;;;;;;;;;;17.00;99.90;;;;;;5060262;28;19993;-93
2023/05/22 06:54:20;;;;;;;;;;;17.00;99.90;;;;;;5037624;28;19992;-93
2023/05/22 06:56:46;;;;;;;;;;;17.00;99.90;;;;;;5048759;28;19980;-94
2023/05/22 06:59:11;;;;;;;;;;;17.00;99.90;;;;;;5079573;28;19978;-93
2023/05/22 07:01:37;;;;;;;;;;;17.00;99.90;;;;;;5060878;28;19925;-94
2023/05/22 07:04:04;;;;;;;;;;;16.90;99.90;;;;;;5079811;28;19924;-93
2023/05/22 07:06:31;;;;;;;;;;;17.00;99.90;;;;;;5074857;28;19982;-94
2023/05/22 07:08:59;;;;;;;;;;;16.90;99.90;;;;;;5065846;28;20289;-93
2023/05/22 07:11:25;;;;;;;;;;;16.80;99.90;;;;;;5061211;28;19955;-94
2023/05/22 07:13:50;;;;;;;;;;;16.90;99.90;;;;;;5069822;28;19984;-94
2023/05/22 07:16:16;;;;;;;;;;;16.80;99.90;;;;;;5077060;28;19925;-94
2023/05/22 07:18:44;;;;;;;;;;;16.80;99.90;;;;;;5042220;28;19925;-93
2023/05/22 07:21:10;;;;;;;;;;;16.80;99.90;;;;;;5058821;28;20004;-94
2023/05/22 07:23:39;;;;;;;;;;;16.70;99.90;;;;;;5039628;28;19925;-94
2023/05/22 07:26:05;;;;;;;;;;;16.60;99.90;;;;;;5058090;28;19932;-94
2023/05/22 07:28:31;;;;;;;;;;;16.60;99.90;;;;;;5057749;28;19925;-95
2023/05/22 07:30:57;;;;;;;;;;;16.70;99.90;;;;;;5076627;28;19992;-94
2023/05/22 07:33:22;;;;;;;;;;;16.70;99.90;;;;;;5062460;28;19980;-94
2023/05/22 07:35:48;;;;;;;;;;;16.70;99.90;;;;;;5058351;28;19929;-94
2023/05/22 07:38:17;;;;;;;;;;;16.70;99.90;;;;;;5042474;28;19988;-94
2023/05/22 07:40:42;;;;;;;;;;;16.50;99.90;;;;;;5057227;28;19964;-94
2023/05/22 07:43:08;;;;;;;;;;;16.50;99.90;;;;;;5040199;28;20278;-95
2023/05/22 07:45:33;;;;;;;;;;;16.60;99.90;;;;;;5045239;28;20285;-95
2023/05/22 07:48:00;;;;;;;;;;;16.70;99.90;;;;;;5047112;28;19920;-95
2023/05/22 07:50:31;;;;;;;;;;;16.60;99.90;;;;;;5070190;28;19964;-95
2023/05/22 07:52:57;;;;;;;;;;;16.70;99.90;;;;;;5060675;28;19952;-94
2023/05/22 07:55:26;;;;;;;;;;;16.60;99.90;;;;;;5056160;28;19925;-96
2023/05/22 07:57:51;;;;;;;;;;;16.60;99.90;;;;;;5078179;28;19925;-95
2023/05/22 08:00:20;;;;;;;;;;;16.60;99.90;;;;;;5056545;28;20493;-95
2023/05/22 08:02:46;;;;;;;;;;;16.50;99.90;;;;;;5060129;28;19935;-95
2023/05/22 08:05:15;;;;;;;;;;;16.60;99.90;;;;;;5044990;28;19924;-93
2023/05/22 08:07:40;;;;;;;;;;;16.40;99.90;;;;;;5060086;28;19933;-96
2023/05/22 08:10:18;;;;;;;;;;;16.40;99.90;;;;;;5044594;28;19987;-95
2023/05/22 08:12:44;;;;;;;;;;;16.40;99.90;;;;;;5061472;28;19932;-93
2023/05/22 08:15:10;;;;;;;;;;;16.50;99.90;;;;;;5039744;28;19924;-96
2023/05/22 08:17:35;;;;;;;;;;;16.40;99.90;;;;;;5044666;28;19935;-94
2023/05/22 08:20:04;;;;;;;;;;;16.30;99.90;;;;;;5062167;28;19925;-93
2023/05/22 08:22:30;;;;;;;;;;;16.40;99.90;;;;;;5057801;28;19925;-96
2023/05/22 08:24:56;;;;;;;;;;;16.30;99.90;;;;;;5040544;28;20318;-94
2023/05/22 08:27:21;;;;;;;;;;;16.30;99.90;;;;;;5045277;28;19930;-94
2023/05/22 08:29:47;;;;;;;;;;;16.30;99.90;;;;;;5039043;28;19939;-95
2023/05/22 08:32:13;;;;;;;;;;;16.40;99.90;;;;;;5062550;28;19925;-95
2023/05/22 08:34:41;;;;;;;;;;;14.10;99.90;;;;;;5043112;28;19928;-95
2023/05/22 08:37:11;;;;;;;;;;;16.30;99.90;;;;;;5079874;28;19925;-95
2023/05/22 08:39:36;;;;;;;;;;;16.70;99.90;;;;;;5060478;28;19928;-95
2023/05/22 08:42:03;;;;;;;;;;;16.40;99.90;;;;;;5059483;28;19956;-96
2023/05/22 08:44:29;;;;;;;;;;;16.30;99.90;;;;;;5059341;28;20001;-94
2023/05/22 08:47:04;;;;;;;;;;;16.20;99.90;;;;;;5046112;28;19947;-94
2023/05/22 08:49:30;;;;;;;;;;;16.30;99.90;;;;;;5051658;28;19932;-94
2023/05/22 08:51:59;;;;;;;;;;;16.50;99.90;;;;;;5063426;28;19925;-93
2023/05/22 08:54:25;;;;;;;;;;;16.50;99.90;;;;;;5053244;28;20371;-94
2023/05/22 08:56:57;;;;;;;;;;;16.50;99.90;;;;;;5057918;28;19983;-96
2023/05/22 08:59:23;;;;;;;;;;;15.70;99.90;;;;;;5070302;28;19925;-94
2023/05/22 09:01:51;;;;;;;;;;;16.70;99.90;;;;;;5060350;28;19929;-94
2023/05/22 09:04:17;;;;;;;;;;;16.70;99.90;;;;;;5055974;28;20327;-95
2023/05/22 09:06:45;;;;;;;;;;;16.80;99.90;;;;;;5056430;28;19928;-94
2023/05/22 09:09:11;;;;;;;;;;;16.80;99.90;;;;;;5041853;28;19928;-94
2023/05/22 09:11:37;;;;;;;;;;;16.90;99.90;;;;;;5046383;28;19925;-96
2023/05/22 09:14:07;;;;;;;;;;;17.00;99.90;;;;;;5026425;28;20510;-95
2023/05/22 09:16:42;;;;;;;;;;;17.10;99.90;;;;;;5072904;28;19939;-95
2023/05/22 09:19:07;;;;;;;;;;;17.00;99.90;;;;;;5079315;28;19925;-95
2023/05/22 09:21:35;;;;;;;;;;;17.20;99.90;;;;;;5060790;28;19975;-94
2023/05/22 09:24:01;;;;;;;;;;;17.10;99.90;;;;;;5050203;28;19932;-94
2023/05/22 09:26:28;;;;;;;;;;;17.30;99.90;;;;;;5065642;28;19925;-94
2023/05/22 09:28:53;;;;;;;;;;;17.40;99.90;;;;;;5062230;28;19925;-94
2023/05/22 09:31:19;;;;;;;;;;;17.60;99.90;;;;;;5073081;28;19925;-94
2023/05/22 09:33:47;;;;;;;;;;;17.60;99.90;;;;;;5046094;28;19928;-95
2023/05/22 09:36:13;;;;;;;;;;;17.60;99.90;;;;;;5069042;28;20327;-95
2023/05/22 09:38:39;;;;;;;;;;;17.80;99.90;;;;;;5056620;28;19925;-95
2023/05/22 09:41:04;;;;;;;;;;;18.00;99.90;;;;;;5058789;28;19931;-96
2023/05/22 09:43:32;;;;;;;;;;;18.20;99.90;;;;;;5039519;28;19932;-95
2023/05/22 09:46:03;;;;;;;;;;;18.40;99.90;;;;;;5077527;28;19925;-95
2023/05/22 09:48:32;;;;;;;;;;;18.60;99.90;;;;;;5061078;28;19928;-95
2023/05/22 09:51:04;;;;;;;;;;;18.80;99.90;;;;;;5051252;28;19932;-95
2023/05/22 09:53:31;;;;;;;;;;;18.40;99.90;;;;;;5044589;28;19947;-94
2023/05/22 09:55:58;;;;;;;;;;;19.00;99.90;;;;;;5056725;28;19925;-95
2023/05/22 09:58:29;;;;;;;;;;;19.10;99.90;;;;;;5057454;28;20024;-96
2023/05/22 10:00:55;;;;;;;;;;;18.90;99.90;;;;;;5047049;28;19951;-94
2023/05/22 10:03:28;;;;;;;;;;;19.40;99.90;;;;;;5045884;28;19925;-95
2023/05/22 10:05:55;;;;;;;;;;;19.70;99.90;;;;;;5057763;28;19925;-90
2023/05/22 10:08:23;;;;;;;;;;;19.70;99.90;;;;;;5077732;28;19986;-92
2023/05/22 10:10:53;;;;;;;;;;;19.70;99.90;;;;;;5063315;28;19928;-93
2023/05/22 10:13:19;;;;;;;;;;;19.60;99.90;;;;;;5040716;28;20008;-95
2023/05/22 10:15:46;;;;;;;;;;;19.80;99.90;;;;;;5039405;28;19931;-93
2023/05/22 10:18:16;;;;;;;;;;;19.90;99.90;;;;;;5055662;28;20405;-91
2023/05/22 10:20:50;;;;;;;;;;;19.90;99.90;;;;;;5036520;28;20331;-92
2023/05/22 10:23:21;;;;;;;;;;;20.00;99.90;;;;;;5062146;28;19925;-92
2023/05/22 10:25:47;;;;;;;;;;;20.10;99.90;;;;;;5060219;28;19925;-92
2023/05/22 10:28:17;;;;;;;;;;;20.00;99.90;;;;;;5066339;28;19925;-92
2023/05/22 10:30:49;;;;;;;;;;;19.90;99.90;;;;;;5055055;28;19924;-93
2023/05/22 10:33:15;;;;;;;;;;;19.20;99.90;;;;;;5080127;28;20038;-92
2023/05/22 10:35:57;;;;;;;;;;;19.90;99.90;;;;;;5056425;28;19925;-93
2023/05/22 10:38:42;;;;;;;;;;;20.10;99.90;;;;;;5062339;28;19924;-91
2023/05/22 10:41:08;;;;;;;;;;;20.00;99.90;;;;;;5048851;28;20036;-90
2023/05/22 10:43:37;;;;;;;;;;;19.80;99.90;;;;;;5061819;28;19929;-91
2023/05/22 10:46:06;;;;;;;;;;;19.80;99.90;;;;;;5047521;28;19935;-92
2023/05/22 10:48:45;;;;;;;;;;;19.70;99.90;;;;;;5052350;28;19932;-89
2023/05/22 10:51:31;;;;;;;;;;;19.60;99.90;;;;;;5033637;28;19925;-92
2023/05/22 10:53:57;;;;;;;;;;;19.70;99.90;;;;;;5075735;28;20545;-94
2023/05/22 10:56:34;;;;;;;;;;;19.60;99.90;;;;;;5056824;28;20008;-93
2023/05/22 10:59:06;;;;;;;;;;;19.70;99.90;;;;;;5059316;28;19932;-95
2023/05/22 11:01:35;;;;;;;;;;;19.60;99.90;;;;;;5059370;28;20358;-94
2023/05/22 11:04:00;;;;;;;;;;;19.70;99.90;;;;;;5057379;28;19925;-94
2023/05/22 11:06:32;;;;;;;;;;;19.90;99.90;;;;;;5035791;28;19947;-91
2023/05/22 11:08:58;;;;;;;;;;;20.00;99.90;;;;;;5043299;28;20007;-91
2023/05/22 11:11:25;;;;;;;;;;;20.20;99.90;;;;;;5077657;28;19932;-91
2023/05/22 11:14:03;;;;;;;;;;;20.40;99.90;;;;;;5042652;28;19948;-90
2023/05/22 11:16:32;;;;;;;;;;;20.70;99.90;;;;;;5040724;28;19933;-92
2023/05/22 11:19:05;;;;;;;;;;;19.70;99.90;;;;;;5060936;28;20391;-93
2023/05/22 11:21:47;;;;;;;;;;;21.10;99.90;;;;;;5031484;28;20412;-93
2023/05/22 11:24:17;;;;;;;;;;;21.10;99.90;;;;;;5052139;28;19924;-93
2023/05/22 11:26:43;;;;;;;;;;;21.00;99.90;;;;;;5057676;28;19931;-93
2023/05/22 11:29:15;;;;;;;;;;;21.10;99.90;;;;;;5060873;28;19925;-91
2023/05/22 11:31:41;;;;;;;;;;;21.30;99.90;;;;;;5034510;28;19925;-92
2023/05/22 11:34:07;;;;;;;;;;;21.40;99.90;;;;;;5061004;28;19971;-93
2023/05/22 11:36:33;;;;;;;;;;;21.30;99.90;;;;;;5053722;28;19928;-93
2023/05/22 11:38:59;;;;;;;;;;;21.30;99.90;;;;;;5076999;28;19928;-94
2023/05/22 11:41:31;;;;;;;;;;;21.30;99.90;;;;;;5072728;28;19932;-93
2023/05/22 11:43:58;;;;;;;;;;;21.20;99.90;;;;;;5059014;28;19928;-91
2023/05/22 11:46:24;;;;;;;;;;;21.20;99.90;;;;;;5057441;28;20384;-94
2023/05/22 11:48:50;;;;;;;;;;;21.40;99.90;;;;;;5038989;28;19932;-94
2023/05/22 11:51:18;;;;;;;;;;;21.50;99.90;;;;;;5070317;28;19948;-91
2023/05/22 11:53:47;;;;;;;;;;;21.60;99.90;;;;;;5046876;28;19925;-94
2023/05/22 11:56:12;;;;;;;;;;;21.40;99.90;;;;;;5061071;28;19925;-93
2023/05/22 11:58:38;;;;;;;;;;;21.80;99.90;;;;;;5039232;28;20009;-92
2023/05/22 12:01:04;;;;;;;;;;;21.80;99.90;;;;;;5051858;28;19932;-94
2023/05/22 12:03:33;;;;;;;;;;;21.90;99.90;;;;;;5073295;28;20483;-94
2023/05/22 12:06:02;;;;;;;;;;;22.00;99.90;;;;;;5042286;28;19987;-92
2023/05/22 12:08:27;;;;;;;;;;;22.90;99.90;;;;;;5057130;28;19963;-94
2023/05/22 12:10:53;;;;;;;;;;;22.50;99.90;;;;;;5076479;28;19924;-93
2023/05/22 12:13:23;;;;;;;;;;;22.60;99.90;;;;;;5057640;28;19939;-94
2023/05/22 12:15:51;;;;;;;;;;;22.70;99.90;;;;;;5042268;28;19936;-93
2023/05/22 12:18:20;;;;;;;;;;;23.00;99.90;;;;;;5061180;28;19931;-94
2023/05/22 12:20:46;;;;;;;;;;;23.20;99.90;;;;;;5046586;28;20392;-95
2023/05/22 12:23:19;;;;;;;;;;;23.30;99.90;;;;;;5046630;28;19992;-94
2023/05/22 12:25:45;;;;;;;;;;;23.40;99.90;;;;;;5042844;28;20314;-95
2023/05/22 12:28:10;;;;;;;;;;;23.50;99.90;;;;;;5045863;28;19924;-94
2023/05/22 12:30:40;;;;;;;;;;;23.60;99.90;;;;;;5039601;28;19924;-95
2023/05/22 12:33:13;;;;;;;;;;;23.70;99.90;;;;;;5042671;28;19939;-95
2023/05/22 12:35:40;;;;;;;;;;;23.90;99.90;;;;;;5054313;28;19935;-94
2023/05/22 12:38:06;;;;;;;;;;;23.90;99.90;;;;;;5054794;28;19940;-96
2023/05/22 12:40:31;;;;;;;;;;;24.00;99.90;;;;;;5052381;28;19925;-95
2023/05/22 12:42:57;;;;;;;;;;;24.00;99.90;;;;;;5076562;28;19946;-94
2023/05/22 12:45:23;;;;;;;;;;;23.90;99.90;;;;;;5070187;28;19925;-93
2023/05/22 12:47:49;;;;;;;;;;;24.10;99.90;;;;;;5062081;28;19925;-93
2023/05/22 12:50:15;;;;;;;;;;;24.20;99.90;;;;;;5058708;28;19984;-93
2023/05/22 12:52:40;;;;;;;;;;;24.10;99.90;;;;;;5069086;28;19928;-94
2023/05/22 12:55:06;;;;;;;;;;;24.10;99.90;;;;;;5023278;28;19925;-94
2023/05/22 12:57:32;;;;;;;;;;;24.20;99.90;;;;;;5072762;28;20280;-94
2023/05/22 13:00:00;;;;;;;;;;;24.20;99.90;;;;;;5036567;28;19933;-93
2023/05/22 13:02:26;;;;;;;;;;;25.60;99.90;;;;;;5042905;28;19999;-93
2023/05/22 13:04:52;;;;;;;;;;;24.00;99.90;;;;;;5026985;28;19946;-94
2023/05/22 13:07:17;;;;;;;;;;;24.10;99.90;;;;;;5056579;28;19925;-92
2023/05/22 13:09:43;;;;;;;;;;;24.20;99.90;;;;;;5040203;28;19925;-93
2023/05/22 13:12:09;;;;;;;;;;;24.30;99.90;;;;;;5022478;28;19928;-93
2023/05/22 13:14:37;;;;;;;;;;;24.10;99.90;;;;;;5042187;28;19924;-92
2023/05/22 13:17:06;;;;;;;;;;;23.90;99.90;;;;;;5057191;28;19924;-91
2023/05/22 13:19:32;;;;;;;;;;;23.60;99.90;;;;;;5045303;28;19924;-92
2023/05/22 13:22:01;;;;;;;;;;;23.40;99.90;;;;;;5041907;28;19933;-91
2023/05/22 13:24:29;;;;;;;;;;;23.20;99.90;;;;;;5062773;28;19928;-91
2023/05/22 13:26:55;;;;;;;;;;;23.10;99.90;;;;;;5042606;28;19924;-93
2023/05/22 13:29:23;;;;;;;;;;;22.80;99.90;;;;;;5023955;28;19925;-93
2023/05/22 13:31:49;;;;;;;;;;;22.70;99.90;;;;;;5031101;28;19925;-94
2023/05/22 13:34:17;;;;;;;;;;;22.60;99.90;;;;;;5042348;28;19925;-92
2023/05/22 13:36:46;;;;;;;;;;;22.40;99.90;;;;;;5050018;28;20358;-92
2023/05/22 13:39:12;;;;;;;;;;;21.90;99.90;;;;;;5059678;28;19932;-94
2023/05/22 13:41:37;;;;;;;;;;;22.50;99.90;;;;;;5018360;28;19931;-93
2023/05/22 13:44:03;;;;;;;;;;;22.60;99.90;;;;;;5077277;28;19932;-91
2023/05/22 13:46:28;;;;;;;;;;;22.50;99.90;;;;;;5055762;28;19929;-91
2023/05/22 13:48:54;;;;;;;;;;;22.30;99.90;;;;;;5044426;28;19924;-93
2023/05/22 13:51:20;;;;;;;;;;;22.20;99.90;;;;;;5024984;28;19924;-92
2023/05/22 13:53:45;;;;;;;;;;;22.30;99.90;;;;;;5062319;28;20433;-93
2023/05/22 13:56:11;;;;;;;;;;;22.30;99.90;;;;;;5047995;28;19924;-92
2023/05/22 13:58:37;;;;;;;;;;;22.20;99.90;;;;;;5046666;28;19925;-92
2023/05/22 14:01:02;;;;;;;;;;;22.20;99.90;;;;;;5042335;28;19968;-92
2023/05/22 14:03:28;;;;;;;;;;;22.20;99.90;;;;;;5081453;28;19928;-93
2023/05/22 14:05:53;;;;;;;;;;;22.30;99.90;;;;;;5066799;28;20289;-92
2023/05/22 14:08:19;;;;;;;;;;;22.10;99.90;;;;;;5059361;28;19928;-94
2023/05/22 14:10:45;;;;;;;;;;;22.00;99.90;;;;;;5060315;28;19924;-93
2023/05/22 14:13:10;;;;;;;;;;;21.90;99.90;;;;;;5062829;28;19924;-93
2023/05/22 14:15:36;;;;;;;;;;;23.20;99.90;;;;;;5062181;28;19979;-92
2023/05/22 14:18:02;;;;;;;;;;;21.90;99.90;;;;;;5042951;28;19951;-94
2023/05/22 14:20:27;;;;;;;;;;;21.70;99.90;;;;;;5079413;28;20304;-94
2023/05/22 14:22:53;;;;;;;;;;;21.60;99.90;;;;;;5046291;28;19924;-93
2023/05/22 14:25:19;;;;;;;;;;;21.60;99.90;;;;;;5081187;28;19924;-93
2023/05/22 14:27:44;;;;;;;;;;;21.40;99.90;;;;;;5035556;28;19947;-91